Terminal Aerodrome Forecast
Issued by NWS

Home | Current Version | Previous Version | Text Only | Print | Product List | Glossary On
Versions: 1 2 3 4 5 6 7 8 9 10 11 12 13 14 15 16
794
FTUS46 KSEW 281504 AAA
TAFHQM
TAF AMD
KHQM 281504Z 2815/2912 29003KT P6SM BKN045
     FM282000 25012KT P6SM SCT045
     FM290500 27008KT P6SM SCT040 SCT200
     FM291000 27006KT P6SM SCT020 BKN150=

USA.gov is the U.S. government's official web portal to all federal, state and local government web resources and services.